createdAt,value
2023-02-09T00:01:19.748Z,23.00
2023-02-09T00:03:47.585Z,23.50
2023-02-09T00:06:20.681Z,23.20
2023-02-09T00:08:48.079Z,22.13
2023-02-09T00:11:46.865Z,23.37
2023-02-09T00:14:15.691Z,22.83
2023-02-09T00:16:43.044Z,22.53
2023-02-09T00:19:11.205Z,24.27
2023-02-09T00:21:39.485Z,22.63
2023-02-09T00:24:07.305Z,22.77
2023-02-09T00:26:34.555Z,23.83
2023-02-09T00:29:01.378Z,23.20
2023-02-09T00:31:28.782Z,23.10
2023-02-09T00:33:56.280Z,23.23
2023-02-09T00:36:23.279Z,23.77
2023-02-09T00:38:50.211Z,22.70
2023-02-09T00:41:21.003Z,22.40
2023-02-09T00:43:47.803Z,23.50
2023-02-09T00:46:14.682Z,22.63
2023-02-09T00:48:41.676Z,23.73
2023-02-09T00:51:08.530Z,23.13
2023-02-09T00:53:35.402Z,22.47
2023-02-09T00:56:05.163Z,23.53
2023-02-09T00:58:32.062Z,23.97
2023-02-09T01:00:58.839Z,22.63
2023-02-09T01:03:25.734Z,22.53
2023-02-09T01:05:53.517Z,23.80
2023-02-09T01:08:20.397Z,24.63
2023-02-09T01:10:47.595Z,22.73
2023-02-09T01:13:17.854Z,23.20
2023-02-09T01:15:44.697Z,23.77
2023-02-09T01:18:11.571Z,23.13
2023-02-09T01:20:41.268Z,24.33
2023-02-09T01:23:08.494Z,23.33
2023-02-09T01:25:35.310Z,24.17
2023-02-09T01:28:02.385Z,23.93
2023-02-09T01:30:29.514Z,24.33
2023-02-09T01:32:56.335Z,22.97
2023-02-09T01:35:23.319Z,23.63
2023-02-09T01:37:54.817Z,24.07
2023-02-09T01:40:21.813Z,25.07
2023-02-09T01:42:48.909Z,23.57
2023-02-09T01:45:29.870Z,24.33
2023-02-09T01:48:01.793Z,24.90
2023-02-09T01:50:35.958Z,24.63
2023-02-09T01:53:04.356Z,24.93
2023-02-09T01:55:35.154Z,24.33
2023-02-09T01:58:09.607Z,25.87
2023-02-09T02:00:36.868Z,23.63
2023-02-09T02:03:13.936Z,24.27
2023-02-09T02:05:44.997Z,23.20
2023-02-09T02:08:21.285Z,23.47
2023-02-09T02:10:48.372Z,25.97
2023-02-09T02:13:15.553Z,24.47
2023-02-09T02:16:10.975Z,23.60
2023-02-09T02:18:56.743Z,24.07
2023-02-09T02:21:38.858Z,23.23
2023-02-09T02:24:42.766Z,23.00
2023-02-09T02:27:20.879Z,23.30
2023-02-09T02:30:20.027Z,23.47
2023-02-09T02:32:56.417Z,23.13
2023-02-09T02:35:46.498Z,23.70
2023-02-09T02:38:25.512Z,24.37
2023-02-09T02:41:07.365Z,23.30
2023-02-09T02:43:34.304Z,23.90
2023-02-09T02:46:05.902Z,24.53
2023-02-09T02:48:48.312Z,23.93
2023-02-09T02:51:21.822Z,24.23
2023-02-09T02:53:57.446Z,23.43
2023-02-09T02:56:37.119Z,23.40
2023-02-09T02:59:08.351Z,23.23
2023-02-09T03:01:47.569Z,23.50
2023-02-09T03:04:16.384Z,22.67
2023-02-09T03:06:43.421Z,23.20
2023-02-09T03:09:13.398Z,22.53
2023-02-09T03:11:46.900Z,24.30
2023-02-09T03:14:25.730Z,21.90
2023-02-09T03:17:07.353Z,23.27
2023-02-09T03:20:01.058Z,22.57
2023-02-09T03:22:35.793Z,22.03
2023-02-09T03:25:24.277Z,23.37
2023-02-09T03:28:29.427Z,22.43
2023-02-09T03:30:59.109Z,23.70
2023-02-09T03:33:29.778Z,21.93
2023-02-09T03:35:59.430Z,22.20
2023-02-09T03:38:27.740Z,22.77
2023-02-09T03:40:55.631Z,21.47
2023-02-09T03:43:42.480Z,21.47
2023-02-09T03:46:10.188Z,23.20
2023-02-09T03:48:37.258Z,23.00
2023-02-09T03:51:07.055Z,22.40
2023-02-09T03:53:36.770Z,21.83
2023-02-09T03:56:05.082Z,21.90
2023-02-09T03:58:32.179Z,21.20
2023-02-09T04:01:05.548Z,21.20
2023-02-09T04:03:32.841Z,21.87
2023-02-09T04:06:00.120Z,21.07
2023-02-09T04:08:27.563Z,20.87
2023-02-09T04:10:54.531Z,21.10
2023-02-09T04:13:21.447Z,21.50
2023-02-09T04:15:48.401Z,21.00
2023-02-09T04:18:15.207Z,22.43
2023-02-09T04:20:45.311Z,19.87
2023-02-09T04:23:13.182Z,20.23
2023-02-09T04:25:39.989Z,19.53
2023-02-09T04:28:06.929Z,18.53
2023-02-09T04:30:33.871Z,18.53
2023-02-09T04:33:00.764Z,19.43
2023-02-09T04:35:27.605Z,18.00
2023-02-09T04:37:54.602Z,18.37
2023-02-09T04:40:21.574Z,18.63
2023-02-09T04:42:48.510Z,19.13
2023-02-09T04:45:15.519Z,17.90
2023-02-09T04:47:42.534Z,19.27
2023-02-09T04:50:09.823Z,18.40
2023-02-09T04:52:36.817Z,17.03
2023-02-09T04:55:04.050Z,18.77
2023-02-09T04:57:49.450Z,17.97
2023-02-09T05:00:16.684Z,17.83
2023-02-09T05:02:43.759Z,17.00
2023-02-09T05:05:10.763Z,17.10
2023-02-09T05:07:37.767Z,16.83
2023-02-09T05:10:05.160Z,15.80
2023-02-09T05:12:32.180Z,15.90
2023-02-09T05:14:58.996Z,16.17
2023-02-09T05:17:25.953Z,17.50
2023-02-09T05:19:53.005Z,15.87
2023-02-09T05:22:20.006Z,16.57
2023-02-09T05:24:46.797Z,15.50
2023-02-09T05:27:13.820Z,15.57
2023-02-09T05:29:40.682Z,16.03
2023-02-09T05:32:07.728Z,16.00
2023-02-09T05:34:40.011Z,15.60
2023-02-09T05:37:07.053Z,15.30
2023-02-09T05:39:33.969Z,15.80
2023-02-09T05:42:16.130Z,16.90
2023-02-09T05:44:44.575Z,14.90
2023-02-09T05:47:12.341Z,16.00
2023-02-09T05:49:39.352Z,15.20
2023-02-09T05:52:07.424Z,15.87
2023-02-09T05:54:34.945Z,15.53
2023-02-09T05:57:02.196Z,14.17
2023-02-09T05:59:29.193Z,15.73
2023-02-09T06:01:56.226Z,15.97
2023-02-09T06:04:24.184Z,15.77
2023-02-09T06:06:51.200Z,14.83
2023-02-09T06:09:21.148Z,18.97
2023-02-09T06:11:48.548Z,14.97
2023-02-09T06:14:16.088Z,14.20
2023-02-09T06:16:42.958Z,16.10
2023-02-09T06:19:17.962Z,16.73
2023-02-09T06:21:45.562Z,15.57
2023-02-09T06:24:13.464Z,15.23
2023-02-09T06:26:41.490Z,13.23
2023-02-09T06:29:09.615Z,13.17
2023-02-09T06:31:37.001Z,13.60
2023-02-09T06:34:05.910Z,12.73
2023-02-09T06:36:33.253Z,11.93
2023-02-09T06:39:01.093Z,11.63
2023-02-09T06:41:28.150Z,12.40
2023-02-09T06:43:54.997Z,11.57
2023-02-09T06:46:22.010Z,12.40
2023-02-09T06:48:49.456Z,11.67
2023-02-09T06:51:17.835Z,11.33
2023-02-09T06:53:45.055Z,10.30
2023-02-09T06:56:13.202Z,10.80
2023-02-09T06:58:42.862Z,11.17
2023-02-09T07:01:12.363Z,10.77
2023-02-09T07:03:39.828Z,10.13
2023-02-09T07:06:09.548Z,10.47
2023-02-09T07:08:37.062Z,10.97
2023-02-09T07:11:10.247Z,11.93
2023-02-09T07:13:37.784Z,10.80
2023-02-09T07:16:07.005Z,10.03
2023-02-09T07:18:34.104Z,10.80
2023-02-09T07:21:04.178Z,10.90
2023-02-09T07:23:31.198Z,11.03
2023-02-09T07:26:10.498Z,10.13
2023-02-09T07:28:38.078Z,10.27
2023-02-09T07:31:08.831Z,10.07
2023-02-09T07:33:37.515Z,10.70
2023-02-09T07:36:11.872Z,9.83
2023-02-09T07:38:39.544Z,10.37
2023-02-09T07:41:08.209Z,10.07
2023-02-09T07:43:35.443Z,10.07
2023-02-09T07:46:05.054Z,10.40
2023-02-09T07:48:32.340Z,11.00
2023-02-09T07:50:59.871Z,10.87
2023-02-09T07:53:27.390Z,10.47
2023-02-09T07:55:54.699Z,10.60
2023-02-09T07:58:22.170Z,10.87
2023-02-09T08:00:50.377Z,10.63
2023-02-09T08:03:21.248Z,10.80
2023-02-09T08:06:00.901Z,10.97
2023-02-09T08:08:27.848Z,10.83
2023-02-09T08:11:00.584Z,10.33
2023-02-09T08:13:30.572Z,9.90
2023-02-09T08:16:03.207Z,10.50
2023-02-09T08:18:36.420Z,9.97
2023-02-09T08:21:06.808Z,9.80
2023-02-09T08:23:35.434Z,10.23
2023-02-09T08:26:08.015Z,9.23
2023-02-09T08:28:43.626Z,9.50
2023-02-09T08:31:12.377Z,9.40
2023-02-09T08:33:39.497Z,9.50
2023-02-09T08:36:08.693Z,8.80
2023-02-09T08:38:36.298Z,9.30
2023-02-09T08:41:04.789Z,8.60
2023-02-09T08:43:32.468Z,9.37
2023-02-09T08:46:05.624Z,9.30
2023-02-09T08:48:37.747Z,9.00
2023-02-09T08:51:06.535Z,8.67
2023-02-09T08:53:33.780Z,9.17
2023-02-09T08:56:00.950Z,8.53
2023-02-09T08:58:28.623Z,8.57
2023-02-09T09:01:03.256Z,8.97
2023-02-09T09:03:31.919Z,8.83
2023-02-09T09:06:07.650Z,8.07
2023-02-09T09:08:37.311Z,8.30
2023-02-09T09:11:06.633Z,8.57
2023-02-09T09:13:34.002Z,8.83
2023-02-09T09:16:01.308Z,8.40
2023-02-09T09:18:29.034Z,8.57
2023-02-09T09:20:56.553Z,8.63
2023-02-09T09:23:23.386Z,9.50
2023-02-09T09:25:50.227Z,9.07
2023-02-09T09:28:17.705Z,8.70
2023-02-09T09:30:44.713Z,9.60
2023-02-09T09:33:11.857Z,8.67
2023-02-09T09:35:39.092Z,8.57
2023-02-09T09:38:06.051Z,9.10
2023-02-09T09:40:37.470Z,8.67
2023-02-09T09:43:35.396Z,9.13
2023-02-09T09:46:04.278Z,8.90
2023-02-09T09:48:56.612Z,9.63
2023-02-09T09:51:42.085Z,8.87
2023-02-09T09:54:20.632Z,9.53
2023-02-09T09:56:48.484Z,9.07
2023-02-09T09:59:19.546Z,9.03
2023-02-09T10:01:48.091Z,9.03
2023-02-09T10:04:16.354Z,9.73
2023-02-09T10:06:45.677Z,9.93
2023-02-09T10:09:28.816Z,10.07
2023-02-09T10:12:07.799Z,8.70
2023-02-09T10:14:34.736Z,9.37
2023-02-09T10:17:01.630Z,9.63
2023-02-09T10:19:29.493Z,9.03
2023-02-09T10:21:56.569Z,9.97
2023-02-09T10:24:26.270Z,8.53
2023-02-09T10:27:15.163Z,9.17
2023-02-09T10:29:45.505Z,9.70
2023-02-09T10:32:17.076Z,9.27
2023-02-09T10:34:48.529Z,9.63
2023-02-09T10:37:24.385Z,8.73
2023-02-09T10:40:15.990Z,8.60
2023-02-09T10:43:07.381Z,9.53
2023-02-09T10:45:43.015Z,9.40
2023-02-09T10:48:13.057Z,10.17
2023-02-09T10:50:50.180Z,10.13
2023-02-09T10:53:24.426Z,10.33
2023-02-09T10:55:58.540Z,9.70
2023-02-09T10:58:32.958Z,10.07
2023-02-09T11:01:09.407Z,9.97
2023-02-09T11:03:38.191Z,10.13
2023-02-09T11:06:16.290Z,9.10
2023-02-09T11:08:45.834Z,9.50
2023-02-09T11:11:30.228Z,10.13
2023-02-09T11:13:58.116Z,9.33
2023-02-09T11:16:41.764Z,10.27
2023-02-09T11:19:22.895Z,9.87
2023-02-09T11:22:05.248Z,9.70
2023-02-09T11:25:10.246Z,9.47
2023-02-09T11:27:55.457Z,10.00
2023-02-09T11:30:53.706Z,9.90
2023-02-09T11:33:59.587Z,9.70
2023-02-09T11:36:55.747Z,10.00
2023-02-09T11:39:34.669Z,9.70
2023-02-09T11:42:29.979Z,9.57
2023-02-09T11:45:02.946Z,9.73
2023-02-09T11:47:42.690Z,9.70
2023-02-09T11:50:20.578Z,9.37
2023-02-09T11:52:57.948Z,10.03
2023-02-09T11:55:39.651Z,13.27
2023-02-09T11:58:21.619Z,9.87
2023-02-09T12:01:10.043Z,10.60
2023-02-09T12:03:46.615Z,10.53
2023-02-09T12:06:17.383Z,10.17
2023-02-09T12:09:05.197Z,10.13
2023-02-09T12:11:56.726Z,10.17
2023-02-09T12:14:44.414Z,9.53
2023-02-09T12:17:18.690Z,10.33
2023-02-09T12:19:56.420Z,10.10
2023-02-09T12:22:35.609Z,10.27
2023-02-09T12:25:20.099Z,10.47
2023-02-09T12:28:08.960Z,9.70
2023-02-09T12:30:46.581Z,10.47
2023-02-09T12:33:24.060Z,10.27
2023-02-09T12:36:04.919Z,11.07
2023-02-09T12:38:54.496Z,9.73
2023-02-09T12:41:28.332Z,10.80
2023-02-09T12:44:10.290Z,10.23
2023-02-09T12:46:51.617Z,9.80
2023-02-09T12:49:27.715Z,11.10
2023-02-09T12:52:14.527Z,10.60
2023-02-09T12:54:55.739Z,10.23
2023-02-09T12:57:22.678Z,10.70
2023-02-09T12:59:52.819Z,10.77
2023-02-09T13:02:24.459Z,10.67
2023-02-09T13:04:59.537Z,9.87
2023-02-09T13:08:06.028Z,10.53
2023-02-09T13:10:44.454Z,10.40
2023-02-09T13:13:11.372Z,10.60
2023-02-09T13:16:07.022Z,10.93
2023-02-09T13:19:11.160Z,10.33
2023-02-09T13:21:38.188Z,10.57
2023-02-09T13:24:18.616Z,10.17
2023-02-09T13:26:54.314Z,10.30
2023-02-09T13:29:24.002Z,11.07
2023-02-09T13:32:17.003Z,11.33
2023-02-09T13:35:01.848Z,13.93
2023-02-09T13:37:34.576Z,12.43
2023-02-09T13:40:13.075Z,52.73
2023-02-09T13:42:56.575Z,108.57
2023-02-09T13:45:24.917Z,18.90
2023-02-09T13:47:51.837Z,13.10
2023-02-09T13:50:22.462Z,12.90
2023-02-09T13:52:52.720Z,12.50
2023-02-09T13:55:27.416Z,11.60
2023-02-09T13:58:05.655Z,10.40
2023-02-09T14:00:41.840Z,10.67
2023-02-09T14:03:16.912Z,10.63
2023-02-09T14:05:47.293Z,11.47
2023-02-09T14:08:16.895Z,10.50
2023-02-09T14:10:53.292Z,12.40
2023-02-09T14:13:35.248Z,11.43
2023-02-09T14:16:07.043Z,12.10
2023-02-09T14:18:50.463Z,11.57
2023-02-09T14:21:43.748Z,10.67
2023-02-09T14:24:15.442Z,11.47
2023-02-09T14:26:49.444Z,12.30
2023-02-09T14:29:28.574Z,11.93
2023-02-09T14:32:37.760Z,12.40
2023-02-09T14:35:26.224Z,12.07
2023-02-09T14:37:56.571Z,11.93
2023-02-09T14:40:31.091Z,12.07
2023-02-09T14:43:20.198Z,11.80
2023-02-09T14:45:57.381Z,11.77
2023-02-09T14:48:26.740Z,11.97
2023-02-09T14:50:58.565Z,12.30
2023-02-09T14:53:29.889Z,11.97
2023-02-09T14:55:57.943Z,10.67
2023-02-09T14:58:26.050Z,11.80
2023-02-09T15:00:55.198Z,11.13
2023-02-09T15:03:22.178Z,12.47
2023-02-09T15:05:51.754Z,12.67
2023-02-09T15:08:23.821Z,11.30
2023-02-09T15:10:54.359Z,11.70
2023-02-09T15:13:23.581Z,12.43
2023-02-09T15:15:50.649Z,12.37
2023-02-09T15:18:20.824Z,12.23
2023-02-09T15:20:47.903Z,11.77
2023-02-09T15:23:15.323Z,12.40
2023-02-09T15:25:42.618Z,12.60
2023-02-09T15:28:33.346Z,13.17
2023-02-09T15:31:01.491Z,13.60
2023-02-09T15:33:29.559Z,12.67
2023-02-09T15:35:59.218Z,12.67
2023-02-09T15:38:27.913Z,12.80
2023-02-09T15:41:27.072Z,12.87
2023-02-09T15:44:12.645Z,12.33
2023-02-09T15:46:58.120Z,12.97
2023-02-09T15:49:25.108Z,13.67
2023-02-09T15:51:52.171Z,12.97
2023-02-09T15:54:21.935Z,12.73
2023-02-09T15:56:48.837Z,13.40
2023-02-09T15:59:23.720Z,12.73
2023-02-09T16:01:52.116Z,12.60
2023-02-09T16:04:19.108Z,13.53
2023-02-09T16:06:52.806Z,14.17
2023-02-09T16:09:23.683Z,12.93
2023-02-09T16:11:50.595Z,13.47
2023-02-09T16:14:21.171Z,13.67
2023-02-09T16:16:48.523Z,12.60
2023-02-09T16:19:17.057Z,13.10
2023-02-09T16:21:50.959Z,13.07
2023-02-09T16:24:32.778Z,14.13
2023-02-09T16:27:01.996Z,13.73
2023-02-09T16:29:29.266Z,13.83
2023-02-09T16:31:56.295Z,14.57
2023-02-09T16:34:23.436Z,14.00
2023-02-09T16:36:50.379Z,14.17
2023-02-09T16:39:20.325Z,13.80
2023-02-09T16:41:48.336Z,16.17
2023-02-09T16:44:24.582Z,14.20
2023-02-09T16:46:54.519Z,14.53
2023-02-09T16:49:27.399Z,27.97
2023-02-09T16:51:57.973Z,15.20
2023-02-09T16:54:24.840Z,14.63
2023-02-09T16:56:54.627Z,14.23
2023-02-09T16:59:21.970Z,15.43
2023-02-09T17:01:49.203Z,13.73
2023-02-09T17:04:16.270Z,14.73
2023-02-09T17:06:47.879Z,14.57
2023-02-09T17:09:15.866Z,14.73
2023-02-09T17:11:48.280Z,13.80
2023-02-09T17:14:15.527Z,15.17
2023-02-09T17:16:44.885Z,14.10
2023-02-09T17:19:15.772Z,14.87
2023-02-09T17:21:42.993Z,15.20
2023-02-09T17:24:15.586Z,15.60
2023-02-09T17:26:42.621Z,14.80
2023-02-09T17:29:12.782Z,14.67
2023-02-09T17:31:52.909Z,16.00
2023-02-09T17:34:22.221Z,15.90
2023-02-09T17:36:49.409Z,16.30
2023-02-09T17:39:19.100Z,15.63
2023-02-09T17:41:48.578Z,16.07
2023-02-09T17:44:43.388Z,15.17
2023-02-09T17:47:20.778Z,15.93
2023-02-09T17:49:48.094Z,15.33
2023-02-09T17:52:19.977Z,15.70
2023-02-09T17:54:47.520Z,15.40
2023-02-09T17:57:16.578Z,14.97
2023-02-09T17:59:44.127Z,15.67
2023-02-09T18:02:19.969Z,16.10
2023-02-09T18:04:49.620Z,16.27
2023-02-09T18:07:20.727Z,15.93
2023-02-09T18:09:47.889Z,15.73
2023-02-09T18:12:21.677Z,15.77
2023-02-09T18:14:48.939Z,15.57
2023-02-09T18:17:15.933Z,16.43
2023-02-09T18:19:45.986Z,16.50
2023-02-09T18:22:17.224Z,17.17
2023-02-09T18:24:44.541Z,17.40
2023-02-09T18:27:18.337Z,16.30
2023-02-09T18:29:45.397Z,16.40
2023-02-09T18:32:15.474Z,16.17
2023-02-09T18:34:42.689Z,16.60
2023-02-09T18:37:09.441Z,16.50
2023-02-09T18:39:41.974Z,15.70
2023-02-09T18:42:13.237Z,16.73
2023-02-09T18:44:40.170Z,15.77
2023-02-09T18:47:07.740Z,15.53
2023-02-09T18:49:34.771Z,16.77
2023-02-09T18:52:02.537Z,17.20
2023-02-09T18:54:30.111Z,16.80
2023-02-09T18:56:57.375Z,16.33
2023-02-09T18:59:28.694Z,17.80
2023-02-09T19:01:55.909Z,18.80
2023-02-09T19:04:25.081Z,17.17
2023-02-09T19:06:52.551Z,18.13
2023-02-09T19:09:19.625Z,17.73
2023-02-09T19:11:46.452Z,18.40
2023-02-09T19:14:31.890Z,18.43
2023-02-09T19:16:59.014Z,19.00
2023-02-09T19:19:26.533Z,18.40
2023-02-09T19:21:53.517Z,19.67
2023-02-09T19:24:20.659Z,20.80
2023-02-09T19:26:50.574Z,26.37
2023-02-09T19:29:17.830Z,21.87
2023-02-09T19:31:46.669Z,23.53
2023-02-09T19:34:16.481Z,21.27
2023-02-09T19:36:44.549Z,31.73
2023-02-09T19:39:12.209Z,21.10
2023-02-09T19:44:14.498Z,24.63
2023-02-09T19:46:42.869Z,22.00
2023-02-09T19:49:10.487Z,22.10
2023-02-09T19:51:38.134Z,21.90
2023-02-09T19:54:07.578Z,22.27
2023-02-09T19:56:34.991Z,22.07
2023-02-09T19:59:03.462Z,23.23
2023-02-09T20:01:31.764Z,21.73
2023-02-09T20:03:58.960Z,21.30
2023-02-09T20:06:25.864Z,20.57
2023-02-09T20:08:53.042Z,20.13
2023-02-09T20:11:21.336Z,20.17
2023-02-09T20:13:52.659Z,21.10
2023-02-09T20:16:26.458Z,21.97
2023-02-09T20:18:54.311Z,20.27
2023-02-09T20:21:26.174Z,20.30
2023-02-09T20:23:59.133Z,20.43
2023-02-09T20:26:29.712Z,19.40
2023-02-09T20:28:57.690Z,21.50
2023-02-09T20:31:27.563Z,20.40
2023-02-09T20:33:55.166Z,21.30
2023-02-09T20:36:24.526Z,21.60
2023-02-09T20:38:52.616Z,19.90
2023-02-09T20:41:22.399Z,22.03
2023-02-09T20:44:07.677Z,21.67
2023-02-09T20:46:44.087Z,21.40
2023-02-09T20:49:13.954Z,20.53
2023-02-09T20:51:41.139Z,22.87
2023-02-09T20:54:07.963Z,21.93
2023-02-09T20:56:38.238Z,22.50
2023-02-09T20:59:06.543Z,20.97
2023-02-09T21:01:36.533Z,22.17
2023-02-09T21:04:07.637Z,22.83
2023-02-09T21:06:37.189Z,21.73
2023-02-09T21:09:09.462Z,23.10
2023-02-09T21:11:36.536Z,22.97
2023-02-09T21:14:03.714Z,22.20
2023-02-09T21:16:31.447Z,23.10
2023-02-09T21:18:59.339Z,21.47
2023-02-09T21:21:27.635Z,22.80
2023-02-09T21:23:54.779Z,21.67
2023-02-09T21:26:24.359Z,21.77
2023-02-09T21:28:56.312Z,22.17
2023-02-09T21:31:25.772Z,20.70
2023-02-09T21:33:52.725Z,22.80
2023-02-09T21:36:19.855Z,22.83
2023-02-09T21:38:46.772Z,22.20
2023-02-09T21:41:35.931Z,22.07
2023-02-09T21:44:03.341Z,23.10
2023-02-09T21:46:30.381Z,23.13
2023-02-09T21:48:57.305Z,21.73
2023-02-09T21:51:24.684Z,22.77
2023-02-09T21:53:51.898Z,22.87
2023-02-09T21:56:18.952Z,21.27
2023-02-09T21:58:45.852Z,22.43
2023-02-09T22:01:12.920Z,22.27
2023-02-09T22:03:42.462Z,21.90
2023-02-09T22:06:09.775Z,22.20
2023-02-09T22:08:36.832Z,22.43
2023-02-09T22:11:06.283Z,23.00
2023-02-09T22:13:33.475Z,22.33
2023-02-09T22:16:00.841Z,22.77
2023-02-09T22:18:27.745Z,22.53
2023-02-09T22:20:55.005Z,22.10
2023-02-09T22:23:22.141Z,22.37
2023-02-09T22:25:49.010Z,21.83
2023-02-09T22:28:16.189Z,21.37
2023-02-09T22:30:43.299Z,23.00
2023-02-09T22:33:10.248Z,23.43
2023-02-09T22:35:40.820Z,24.07
2023-02-09T22:38:07.646Z,22.37
2023-02-09T22:40:34.537Z,22.70
2023-02-09T22:43:01.392Z,22.80
2023-02-09T22:45:28.457Z,21.77
2023-02-09T22:47:57.971Z,22.10
2023-02-09T22:50:24.814Z,21.93
2023-02-09T22:52:51.860Z,22.23
2023-02-09T22:55:18.720Z,21.23
2023-02-09T22:57:45.837Z,22.43
2023-02-09T23:00:15.561Z,21.87
2023-02-09T23:02:42.739Z,21.93
2023-02-09T23:05:09.799Z,22.57
2023-02-09T23:07:36.682Z,22.53
2023-02-09T23:10:04.328Z,21.20
2023-02-09T23:12:31.492Z,21.23
2023-02-09T23:14:58.528Z,23.00
2023-02-09T23:17:25.488Z,21.53
2023-02-09T23:19:52.384Z,22.93
2023-02-09T23:22:19.704Z,21.03
2023-02-09T23:24:46.684Z,22.47
2023-02-09T23:27:13.681Z,21.33
2023-02-09T23:29:40.690Z,21.93
2023-02-09T23:32:07.580Z,21.73
2023-02-09T23:34:34.322Z,21.57
2023-02-09T23:37:13.163Z,20.90
2023-02-09T23:39:45.836Z,20.60
2023-02-09T23:42:12.744Z,21.73
2023-02-09T23:44:39.741Z,22.33
2023-02-09T23:47:07.771Z,20.43
2023-02-09T23:49:34.873Z,21.20
2023-02-09T23:52:01.739Z,20.90
2023-02-09T23:54:28.736Z,21.37
2023-02-09T23:56:55.833Z,21.17
2023-02-09T23:59:25.420Z,20.97
